Dayton, OH (45417)

1:43 AM EST on February 24, 2017 (GMT -0500)
Sinclair Dayton Campus | | Change Station

Elev 780 ft 39.76 °N, 84.20 °W | Updated 15 seconds ago

Clear
Clear
62.0 °F
Feels Like 62.0 °F
N
11.0
Wind Variable Wind from South
Gusts 11.0 mph

Today
High -- | Low -- °F
--% Chance of Precip.
Yesterday
High -- | Low -- °F
Precip. -- in
Pressure 29.72 in
Visibility 10.0 miles
Clouds Few 4500 ft
Scattered Clouds 7000 ft
Dew Point 56 °F
Humidity 81%
Rainfall 0.00 in
Snow Depth Not available.
7:16 AM 6:23 PM
Waning Crescent, 6% visible
METAR KDAY 240556Z 14007KT 10SM FEW045 SCT070 14/12 A2973 RMK AO2 SLP062 60000 T01440122 10178 20133 58015
Pressure 29.72 in
Visibility 10.0 miles
Clouds Few 4500 ft
Scattered Clouds 7000 ft
Dew Point 56 °F
Humidity 81%
Rainfall 0.00 in
Snow Depth Not available.
7:16 AM 6:23 PM
Waning Crescent, 6% visible
METAR KDAY 240556Z 14007KT 10SM FEW045 SCT070 14/12 A2973 RMK AO2 SLP062 60000 T01440122 10178 20133 58015

Get Your Daily Forecast Email!

Thanks for signing up!

Be on the lookout for a verification email in your inbox.

You'll start receiving the daily forecast at 8 AM.

×

10-Day Weather Forecast

Almanac

Astronomy

Feb. 24, 2017 Rise Set
Actual Time
Civil Twilight
Nautical Twilight
Astronomical Twilight
Moon
Length of Visible Light
Length of Day
Tomorrow will be .
, % of the Moon is Illuminated

Today's Extremes

State Highs State Lows

Community

WunderPhotos

Upload Photos

1,962,540 photos uploaded!

WunderBlog® & News

Nearby

Air Quality

  Air Quality AQ Index Pollutant
Not available.

Snow Depth

Station Depth Elevation

Earthquake Activity

City Distance Mag. Time & Date
Minimum magnitude displayed is 2.5.

Coastal Water Temperatures

Place Temperature

Stations

Nearby Weather Stations

Station Location Temp. Windchill Dew Point Humidity Wind Precip. Elev Updated Type
                   

Watches & Warnings

There are currently no watches in effect.